Time;durP1;ratioP1;P1;durP2;ratioP2;P2;SDS_P1;SDS_P2;PMS_P1;PMS_P2;Temp;Humidity;BMP_temperature;BMP_pressure;BME280_temperature;BME280_humidity;BME280_pressure;Samples;Min_cycle;Max_cycle;Signal;HPM_P1;HPM_P2
2021/03/28 00:00:19;;;;;;;;;;;23.90;43.10;;;;;;1573327;74;788;-67
2021/03/28 00:02:25;;;;;;;;;;;23.90;43.00;;;;;;1572623;74;727;-67
2021/03/28 00:04:27;;;;;;;;;;;23.90;43.10;;;;;;1572818;74;1207;-63
2021/03/28 00:06:33;;;;;;;;;;;23.90;43.20;;;;;;1572197;74;1948;-66
2021/03/28 00:08:35;;;;;;;;;;;24.00;43.40;;;;;;1573247;74;1060;-67
2021/03/28 00:10:39;;;;;;;;;;;23.90;43.30;;;;;;1567101;74;739;-68
2021/03/28 00:12:41;;;;;;;;;;;23.90;43.30;;;;;;1573420;73;998;-67
2021/03/28 00:14:44;;;;;;;;;;;23.90;43.50;;;;;;1582899;74;1167;-67
2021/03/28 00:16:46;;;;;;;;;;;23.90;43.30;;;;;;1575673;74;1032;-67
2021/03/28 00:19:07;;;;;;;;;;;24.00;43.20;;;;;;1592359;72;651;-66
2021/03/28 00:21:11;;;;;;;;;;;23.90;43.30;;;;;;1570419;74;762;-67
2021/03/28 00:23:17;;;;;;;;;;;23.90;43.30;;;;;;1561171;74;999;-66
2021/03/28 00:25:20;;;;;;;;;;;23.90;43.20;;;;;;1572305;74;759;-66
2021/03/28 00:27:23;;;;;;;;;;;23.90;43.30;;;;;;1568995;74;1931;-67
2021/03/28 00:29:25;;;;;;;;;;;23.90;43.30;;;;;;1570511;74;801;-66
2021/03/28 00:31:28;;;;;;;;;;;23.90;43.40;;;;;;1580475;74;749;-66
2021/03/28 00:33:30;;;;;;;;;;;24.00;43.60;;;;;;1582391;74;1246;-66
2021/03/28 00:35:33;;;;;;;;;;;24.00;43.70;;;;;;1567723;74;828;-65
2021/03/28 00:37:35;;;;;;;;;;;23.90;43.70;;;;;;1563046;74;797;-67
2021/03/28 00:39:47;;;;;;;;;;;24.00;43.50;;;;;;1565995;74;759;-65
2021/03/28 00:41:59;;;;;;;;;;;24.00;43.50;;;;;;1580150;74;659;-64
2021/03/28 00:44:19;;;;;;;;;;;24.00;43.40;;;;;;1585305;72;1546;-65
2021/03/28 00:46:23;;;;;;;;;;;24.00;43.30;;;;;;1592722;74;1942;-66
2021/03/28 00:48:26;;;;;;;;;;;24.00;43.40;;;;;;1585961;74;942;-67
2021/03/28 00:50:30;;;;;;;;;;;24.00;43.40;;;;;;1585219;74;1668;-66
2021/03/28 00:52:34;;;;;;;;;;;24.00;43.40;;;;;;1594354;74;1162;-66
2021/03/28 00:54:37;;;;;;;;;;;24.00;43.30;;;;;;1576695;74;1159;-67
2021/03/28 00:56:44;;;;;;;;;;;24.00;43.40;;;;;;1593950;74;763;-66
2021/03/28 00:58:56;;;;;;;;;;;24.00;43.40;;;;;;1598372;74;760;-66
2021/03/28 01:01:00;;;;;;;;;;;24.00;43.20;;;;;;1580369;74;777;-67
2021/03/28 01:03:08;;;;;;;;;;;24.00;43.20;;;;;;1593843;74;784;-67
2021/03/28 01:05:20;;;;;;;;;;;24.00;43.20;;;;;;1591190;73;1637;-64
2021/03/28 01:07:24;;;;;;;;;;;24.00;43.10;;;;;;1606544;74;1947;-66
2021/03/28 01:09:43;;;;;;;;;;;24.00;43.20;;;;;;1584511;74;768;-66
2021/03/28 01:11:55;;;;;;;;;;;24.00;43.10;;;;;;1593620;74;747;-64
2021/03/28 01:14:02;;;;;;;;;;;24.00;43.20;;;;;;1578654;74;1164;-67
2021/03/28 01:16:22;;;;;;;;;;;24.00;43.10;;;;;;1569758;74;1067;-67
2021/03/28 01:18:25;;;;;;;;;;;24.00;43.10;;;;;;1566763;74;743;-66
2021/03/28 01:20:32;;;;;;;;;;;24.00;42.90;;;;;;1580457;74;724;-66
2021/03/28 01:22:35;;;;;;;;;;;24.00;43.00;;;;;;1578400;74;1627;-66
2021/03/28 01:24:39;;;;;;;;;;;24.00;43.10;;;;;;1575657;73;1159;-66
2021/03/28 01:26:51;;;;;;;;;;;24.00;42.80;;;;;;1587508;73;1933;-66
2021/03/28 01:29:04;;;;;;;;;;;24.00;43.10;;;;;;1582484;74;747;-66
2021/03/28 01:31:07;;;;;;;;;;;24.00;43.10;;;;;;1578616;74;742;-64
2021/03/28 01:33:13;;;;;;;;;;;24.00;43.40;;;;;;1577743;74;1069;-66
2021/03/28 01:35:20;;;;;;;;;;;24.00;43.40;;;;;;1593581;73;1235;-63
2021/03/28 01:37:23;;;;;;;;;;;24.00;43.30;;;;;;1585096;74;976;-67
2021/03/28 01:39:27;;;;;;;;;;;24.00;43.20;;;;;;1579159;74;1077;-67
2021/03/28 01:41:30;;;;;;;;;;;24.00;43.40;;;;;;1573318;74;744;-67
2021/03/28 01:43:39;;;;;;;;;;;24.00;43.30;;;;;;1591592;72;1151;-66
2021/03/28 01:45:51;;;;;;;;;;;24.00;43.30;;;;;;1584834;74;1194;-67
2021/03/28 01:47:58;;;;;;;;;;;24.00;43.30;;;;;;1579972;74;1945;-67
2021/03/28 01:50:04;;;;;;;;;;;24.00;43.10;;;;;;1588144;74;1208;-67
2021/03/28 01:52:08;;;;;;;;;;;24.00;43.10;;;;;;1588095;74;729;-68
2021/03/28 01:54:14;;;;;;;;;;;24.00;43.10;;;;;;1591557;74;1190;-68
2021/03/28 01:56:18;;;;;;;;;;;24.00;43.20;;;;;;1601725;72;721;-66
2021/03/28 01:58:37;;;;;;;;;;;24.00;43.10;;;;;;1582070;74;1000;-67
2021/03/28 02:00:41;;;;;;;;;;;24.00;43.10;;;;;;1574477;74;731;-66
2021/03/28 02:02:44;;;;;;;;;;;24.00;43.10;;;;;;1575030;74;726;-67
2021/03/28 02:04:51;;;;;;;;;;;24.00;43.00;;;;;;1583905;73;1532;-67
2021/03/28 02:07:06;;;;;;;;;;;24.00;42.70;;;;;;1576022;74;1931;-67
2021/03/28 02:09:28;;;;;;;;;;;24.00;43.10;;;;;;1578711;74;780;-67
2021/03/28 02:11:34;;;;;;;;;;;24.00;43.10;;;;;;1536834;75;1043;-67
2021/03/28 02:13:53;;;;;;;;;;;24.00;42.80;;;;;;1549106;75;1248;-66
2021/03/28 02:16:09;;;;;;;;;;;24.00;42.70;;;;;;1545442;75;779;-67
2021/03/28 02:18:18;;;;;;;;;;;23.90;42.80;;;;;;1579680;74;1115;-67
2021/03/28 02:20:25;;;;;;;;;;;24.00;42.90;;;;;;1584062;74;753;-67
2021/03/28 02:22:31;;;;;;;;;;;24.00;42.80;;;;;;1575078;74;738;-67
2021/03/28 02:24:47;;;;;;;;;;;23.90;42.60;;;;;;1588500;72;1136;-67
2021/03/28 02:26:50;;;;;;;;;;;24.00;42.60;;;;;;1581605;74;1950;-66
2021/03/28 02:29:00;;;;;;;;;;;23.90;43.20;;;;;;1586678;74;730;-66
2021/03/28 02:31:03;;;;;;;;;;;23.90;43.40;;;;;;1563008;74;1035;-67
2021/03/28 02:33:24;;;;;;;;;;;24.00;43.20;;;;;;1588519;74;738;-66
2021/03/28 02:35:46;;;;;;;;;;;23.90;43.40;;;;;;1584031;74;779;-67
2021/03/28 02:38:05;;;;;;;;;;;23.90;43.30;;;;;;1587916;73;1760;-66
2021/03/28 02:40:09;;;;;;;;;;;23.90;43.20;;;;;;1588779;74;727;-66
2021/03/28 02:42:21;;;;;;;;;;;24.00;43.10;;;;;;1600188;74;1036;-67
2021/03/28 02:44:25;;;;;;;;;;;23.90;43.10;;;;;;1571467;74;1178;-67
2021/03/28 02:46:28;;;;;;;;;;;23.90;43.20;;;;;;1584613;74;753;-67
2021/03/28 02:48:32;;;;;;;;;;;23.90;43.20;;;;;;1592396;74;1948;-67
2021/03/28 02:50:35;;;;;;;;;;;23.90;43.10;;;;;;1593266;74;1505;-67
2021/03/28 02:52:50;;;;;;;;;;;23.90;43.20;;;;;;1592339;74;723;-64
2021/03/28 02:55:03;;;;;;;;;;;23.90;43.20;;;;;;1581246;74;1162;-66
2021/03/28 02:57:06;;;;;;;;;;;23.90;43.30;;;;;;1510954;77;1007;-66
2021/03/28 02:59:21;;;;;;;;;;;23.90;43.30;;;;;;1563118;74;1374;-65
2021/03/28 03:01:25;;;;;;;;;;;23.90;43.30;;;;;;1567485;74;737;-65
2021/03/28 03:03:45;;;;;;;;;;;23.80;43.30;;;;;;1581460;72;1145;-64
2021/03/28 03:05:51;;;;;;;;;;;23.90;43.30;;;;;;1570990;74;782;-64
2021/03/28 03:07:55;;;;;;;;;;;23.80;43.10;;;;;;1575390;74;2149;-65
2021/03/28 03:10:15;;;;;;;;;;;23.80;43.00;;;;;;1586414;74;1483;-63
2021/03/28 03:12:24;;;;;;;;;;;23.90;43.00;;;;;;1580466;74;679;-66
2021/03/28 03:14:36;;;;;;;;;;;23.90;43.00;;;;;;1589420;72;1520;-65
2021/03/28 03:16:56;;;;;;;;;;;23.90;42.90;;;;;;1583005;74;1144;-64
2021/03/28 03:19:12;;;;;;;;;;;23.90;42.80;;;;;;1593030;74;747;-67
2021/03/28 03:21:32;;;;;;;;;;;23.80;42.80;;;;;;1600270;74;820;-66
2021/03/28 03:23:53;;;;;;;;;;;23.80;42.80;;;;;;1575042;74;1147;-66
2021/03/28 03:25:57;;;;;;;;;;;23.80;42.60;;;;;;1586315;74;726;-67
2021/03/28 03:28:06;;;;;;;;;;;23.90;43.20;;;;;;1585405;74;1936;-67
2021/03/28 03:30:09;;;;;;;;;;;23.90;43.10;;;;;;1546303;74;1095;-67
2021/03/28 03:32:31;;;;;;;;;;;23.90;42.90;;;;;;1583922;74;768;-67
2021/03/28 03:34:51;;;;;;;;;;;24.00;42.80;;;;;;1578884;74;1643;-66
2021/03/28 03:36:57;;;;;;;;;;;24.00;42.70;;;;;;1571304;74;752;-66
2021/03/28 03:39:16;;;;;;;;;;;24.00;42.60;;;;;;1575643;74;809;-65
2021/03/28 03:41:23;;;;;;;;;;;24.00;42.70;;;;;;1591881;74;747;-66
2021/03/28 03:43:26;;;;;;;;;;;24.00;42.70;;;;;;1587688;74;1159;-67
2021/03/28 03:45:47;;;;;;;;;;;24.00;42.60;;;;;;1581407;71;216810;-62
2021/03/28 03:48:03;;;;;;;;;;;24.00;42.40;;;;;;1579666;74;1949;-64
2021/03/28 03:50:15;;;;;;;;;;;24.00;42.50;;;;;;1558582;75;1762;-62
2021/03/28 03:52:24;;;;;;;;;;;24.10;42.70;;;;;;1580176;74;753;-61
2021/03/28 03:54:44;;;;;;;;;;;24.00;42.40;;;;;;1587226;72;1249;-61
2021/03/28 03:57:03;;;;;;;;;;;24.10;42.50;;;;;;1633730;71;756;-62
2021/03/28 03:59:10;;;;;;;;;;;24.10;42.40;;;;;;1630848;71;742;-62
2021/03/28 04:01:19;;;;;;;;;;;24.00;42.20;;;;;;1631019;71;753;-62
2021/03/28 04:03:22;;;;;;;;;;;24.10;42.10;;;;;;1620943;71;740;-63
2021/03/28 04:05:26;;;;;;;;;;;24.10;42.20;;;;;;1633163;71;1151;-61
2021/03/28 04:07:47;;;;;;;;;;;24.00;42.20;;;;;;1631544;71;1925;-63
2021/03/28 04:10:07;;;;;;;;;;;24.10;42.40;;;;;;1633452;71;1650;-63
2021/03/28 04:12:19;;;;;;;;;;;24.00;42.30;;;;;;1634033;71;816;-63
2021/03/28 04:14:41;;;;;;;;;;;24.00;42.20;;;;;;1626285;71;1498;-61
2021/03/28 04:16:59;;;;;;;;;;;24.00;42.30;;;;;;1622039;72;652;-62
2021/03/28 04:19:03;;;;;;;;;;;24.00;42.30;;;;;;1626760;71;816;-61
2021/03/28 04:21:12;;;;;;;;;;;24.00;42.30;;;;;;1633548;72;1559;-62
2021/03/28 04:23:28;;;;;;;;;;;24.00;42.30;;;;;;1634987;71;787;-62
2021/03/28 04:25:37;;;;;;;;;;;24.00;42.20;;;;;;1639767;71;1199;-62
2021/03/28 04:27:44;;;;;;;;;;;24.00;42.20;;;;;;1639135;71;1940;-61
2021/03/28 04:29:46;;;;;;;;;;;24.00;42.10;;;;;;1633256;71;1536;-62
2021/03/28 04:31:52;;;;;;;;;;;24.00;42.10;;;;;;1636897;71;787;-61
2021/03/28 04:33:55;;;;;;;;;;;24.00;42.10;;;;;;1648561;70;1490;-62
2021/03/28 04:36:11;;;;;;;;;;;24.00;42.10;;;;;;1641231;71;752;-63
2021/03/28 04:38:15;;;;;;;;;;;24.00;42.00;;;;;;1641369;71;1539;-64
2021/03/28 04:40:30;;;;;;;;;;;24.00;41.90;;;;;;1635787;71;1536;-64
2021/03/28 04:42:37;;;;;;;;;;;24.00;41.90;;;;;;1602345;71;1124;-63
2021/03/28 04:44:39;;;;;;;;;;;24.00;42.10;;;;;;1643854;71;1555;-63
2021/03/28 04:46:46;;;;;;;;;;;24.00;42.10;;;;;;1642793;71;653;-63
2021/03/28 04:48:52;;;;;;;;;;;23.90;42.00;;;;;;1641274;71;1956;-65
2021/03/28 04:51:01;;;;;;;;;;;24.00;42.30;;;;;;1640658;71;733;-62
2021/03/28 04:53:04;;;;;;;;;;;24.00;42.30;;;;;;1641791;71;1641;-63
2021/03/28 04:55:20;;;;;;;;;;;24.10;42.50;;;;;;1640395;71;1238;-63
2021/03/28 04:57:23;;;;;;;;;;;24.10;42.30;;;;;;1630846;71;1056;-60
2021/03/28 04:59:44;;;;;;;;;;;24.10;42.30;;;;;;1644233;71;805;-62
2021/03/28 05:01:54;;;;;;;;;;;24.10;42.40;;;;;;1645196;71;1628;-61
2021/03/28 05:04:14;;;;;;;;;;;24.10;42.30;;;;;;1644345;71;1139;-61
2021/03/28 05:06:17;;;;;;;;;;;24.10;42.30;;;;;;1643509;71;926;-61
2021/03/28 05:08:37;;;;;;;;;;;24.10;42.30;;;;;;1652204;71;1932;-61
2021/03/28 05:10:56;;;;;;;;;;;24.10;42.30;;;;;;1637975;71;763;-62
2021/03/28 05:13:02;;;;;;;;;;;24.10;42.30;;;;;;1646502;71;734;-63
2021/03/28 05:15:05;;;;;;;;;;;24.00;42.30;;;;;;1630963;71;1777;-62
2021/03/28 05:17:18;;;;;;;;;;;24.00;42.30;;;;;;1636886;71;777;-62
2021/03/28 05:19:21;;;;;;;;;;;24.10;42.30;;;;;;1634612;71;752;-62
2021/03/28 05:21:31;;;;;;;;;;;24.00;42.30;;;;;;1632711;71;729;-64
2021/03/28 05:23:49;;;;;;;;;;;24.00;42.30;;;;;;1632725;71;1597;-62
2021/03/28 05:25:53;;;;;;;;;;;24.00;42.40;;;;;;1630385;71;771;-62
2021/03/28 05:27:56;;;;;;;;;;;24.00;42.40;;;;;;1636259;71;1939;-62
2021/03/28 05:30:17;;;;;;;;;;;24.00;42.30;;;;;;1630273;71;1656;-63
2021/03/28 05:32:37;;;;;;;;;;;24.00;42.40;;;;;;1632395;71;648;-63
2021/03/28 05:34:44;;;;;;;;;;;24.00;42.30;;;;;;1640229;71;1226;-59
2021/03/28 05:36:50;;;;;;;;;;;24.10;42.30;;;;;;1639396;71;678;-62
2021/03/28 05:38:59;;;;;;;;;;;24.10;42.10;;;;;;1636488;71;742;-62
2021/03/28 05:41:19;;;;;;;;;;;24.00;41.90;;;;;;1638589;71;745;-62
2021/03/28 05:43:23;;;;;;;;;;;24.00;41.80;;;;;;1632225;71;782;-62
2021/03/28 05:45:26;;;;;;;;;;;24.10;41.80;;;;;;1642077;71;1134;-64
2021/03/28 05:47:39;;;;;;;;;;;24.00;41.60;;;;;;1635122;71;643;-63
2021/03/28 05:49:45;;;;;;;;;;;24.10;41.70;;;;;;1633150;71;1988;-62
2021/03/28 05:52:07;;;;;;;;;;;24.00;41.70;;;;;;1638899;71;755;-60
2021/03/28 05:54:27;;;;;;;;;;;24.10;41.60;;;;;;1639611;71;1575;-62
2021/03/28 05:56:45;;;;;;;;;;;24.00;41.30;;;;;;1632997;71;789;-63
2021/03/28 05:58:48;;;;;;;;;;;24.10;41.30;;;;;;1631456;71;1147;-62
2021/03/28 06:00:52;;;;;;;;;;;24.00;41.10;;;;;;1630584;71;797;-62
2021/03/28 06:03:13;;;;;;;;;;;24.00;41.20;;;;;;1630079;71;2011;-64
2021/03/28 06:05:17;;;;;;;;;;;24.00;41.10;;;;;;1620906;71;1117;-62
2021/03/28 06:07:20;;;;;;;;;;;24.00;41.00;;;;;;1608718;72;1048;-62
2021/03/28 06:09:24;;;;;;;;;;;24.00;41.10;;;;;;1640320;71;1924;-63
2021/03/28 06:11:33;;;;;;;;;;;24.00;41.20;;;;;;1629855;71;1722;-63
2021/03/28 06:13:53;;;;;;;;;;;24.00;41.20;;;;;;1627436;71;748;-63
2021/03/28 06:16:15;;;;;;;;;;;24.00;41.10;;;;;;1629993;71;764;-62
2021/03/28 06:18:34;;;;;;;;;;;24.00;41.00;;;;;;1587796;73;1446;-61
2021/03/28 06:20:40;;;;;;;;;;;24.00;41.00;;;;;;1549047;75;783;-62
2021/03/28 06:22:52;;;;;;;;;;;24.00;41.10;;;;;;1555836;75;1639;-62
2021/03/28 06:24:59;;;;;;;;;;;24.00;41.00;;;;;;1563092;74;1512;-62
2021/03/28 06:27:17;;;;;;;;;;;24.00;41.00;;;;;;1605519;72;746;-62
2021/03/28 06:29:37;;;;;;;;;;;24.00;41.20;;;;;;1591013;73;1953;-64
2021/03/28 06:31:41;;;;;;;;;;;23.90;41.30;;;;;;1599150;72;753;-62
2021/03/28 06:33:56;;;;;;;;;;;23.90;41.50;;;;;;1597490;72;671;-63
2021/03/28 06:36:03;;;;;;;;;;;23.90;41.60;;;;;;1601973;72;675;-64
2021/03/28 06:38:24;;;;;;;;;;;23.90;41.50;;;;;;1605349;72;749;-64
2021/03/28 06:40:38;;;;;;;;;;;23.90;41.70;;;;;;1599319;73;1645;-61
2021/03/28 06:42:50;;;;;;;;;;;23.90;41.70;;;;;;1602111;72;1689;-64
2021/03/28 06:44:59;;;;;;;;;;;23.90;41.50;;;;;;1603038;73;1259;-64
2021/03/28 06:47:08;;;;;;;;;;;24.00;41.40;;;;;;1602706;72;745;-61
2021/03/28 06:49:28;;;;;;;;;;;23.90;41.40;;;;;;1597362;72;1941;-62
2021/03/28 06:51:31;;;;;;;;;;;23.90;41.60;;;;;;1592242;72;738;-62
2021/03/28 06:53:35;;;;;;;;;;;23.90;41.70;;;;;;1602417;72;756;-63
2021/03/28 06:55:42;;;;;;;;;;;23.90;41.60;;;;;;1594210;72;1184;-64
2021/03/28 06:57:57;;;;;;;;;;;23.80;41.50;;;;;;1591428;72;797;-61
2021/03/28 07:00:17;;;;;;;;;;;23.80;41.60;;;;;;1591373;72;729;-64
2021/03/28 07:02:20;;;;;;;;;;;23.70;41.80;;;;;;1590983;72;797;-63
2021/03/28 07:04:40;;;;;;;;;;;23.60;42.10;;;;;;1594149;72;1170;-64
2021/03/28 07:06:44;;;;;;;;;;;23.50;42.10;;;;;;1595472;72;822;-65
2021/03/28 07:09:03;;;;;;;;;;;23.50;42.20;;;;;;1594377;72;1932;-65
2021/03/28 07:11:10;;;;;;;;;;;23.50;42.30;;;;;;1602362;73;771;-62
2021/03/28 07:13:28;;;;;;;;;;;23.50;42.40;;;;;;1598189;72;659;-65
2021/03/28 07:15:48;;;;;;;;;;;23.50;42.30;;;;;;1602846;72;1603;-63
2021/03/28 07:18:08;;;;;;;;;;;23.50;42.10;;;;;;1600143;72;751;-65
2021/03/28 07:20:30;;;;;;;;;;;23.50;41.60;;;;;;1592428;72;753;-63
2021/03/28 07:22:48;;;;;;;;;;;23.60;41.40;;;;;;1594811;73;734;-63
2021/03/28 07:25:08;;;;;;;;;;;23.60;41.00;;;;;;1545886;74;1210;-61
2021/03/28 07:27:27;;;;;;;;;;;23.60;40.60;;;;;;1572547;73;878;-64
2021/03/28 07:29:43;;;;;;;;;;;23.50;40.30;;;;;;1596735;73;1959;-64
2021/03/28 07:31:58;;;;;;;;;;;23.50;40.30;;;;;;1550624;72;1029;-66
2021/03/28 07:34:01;;;;;;;;;;;23.60;40.10;;;;;;1597922;72;1117;-64
2021/03/28 07:36:23;;;;;;;;;;;23.60;39.90;;;;;;1594921;72;1119;-64
2021/03/28 07:38:43;;;;;;;;;;;23.70;39.60;;;;;;1588137;72;749;-63
2021/03/28 07:40:52;;;;;;;;;;;23.70;39.20;;;;;;1595639;72;761;-64
2021/03/28 07:42:58;;;;;;;;;;;23.80;38.90;;;;;;1597717;72;750;-63
2021/03/28 07:45:08;;;;;;;;;;;23.90;38.30;;;;;;1590935;72;1217;-63
2021/03/28 07:47:17;;;;;;;;;;;23.80;37.50;;;;;;1589311;72;749;-65
2021/03/28 07:49:21;;;;;;;;;;;23.90;36.50;;;;;;1591350;72;1955;-63
2021/03/28 07:51:30;;;;;;;;;;;23.80;36.20;;;;;;1549892;74;994;-63
2021/03/28 07:53:50;;;;;;;;;;;23.90;35.60;;;;;;1590832;72;1485;-63
2021/03/28 07:55:53;;;;;;;;;;;23.80;35.80;;;;;;1585641;72;715;-63
2021/03/28 07:58:09;;;;;;;;;;;23.80;35.70;;;;;;1587893;72;1806;-64
2021/03/28 08:00:18;;;;;;;;;;;23.80;35.00;;;;;;1589023;72;1640;-65
2021/03/28 08:02:31;;;;;;;;;;;23.90;34.80;;;;;;1589168;72;1143;-63
2021/03/28 08:04:50;;;;;;;;;;;23.90;34.40;;;;;;1590743;72;1525;-63
2021/03/28 08:07:10;;;;;;;;;;;23.80;34.00;;;;;;1607770;72;825;-63
2021/03/28 08:09:21;;;;;;;;;;;23.90;33.80;;;;;;1602038;72;1932;-63
2021/03/28 08:11:30;;;;;;;;;;;23.90;34.00;;;;;;1604787;72;1765;-63
2021/03/28 08:13:37;;;;;;;;;;;24.00;33.80;;;;;;1606299;73;731;-63
2021/03/28 08:15:57;;;;;;;;;;;24.00;33.70;;;;;;1596733;72;1102;-63
2021/03/28 08:18:15;;;;;;;;;;;24.00;33.40;;;;;;1599019;73;973;-63
2021/03/28 08:20:22;;;;;;;;;;;24.00;32.70;;;;;;1601017;73;752;-63
2021/03/28 08:22:42;;;;;;;;;;;24.00;32.70;;;;;;1590760;73;746;-63
2021/03/28 08:24:57;;;;;;;;;;;24.20;32.80;;;;;;1588011;72;1146;-63
2021/03/28 08:27:03;;;;;;;;;;;24.20;32.70;;;;;;1603497;73;1827;-63
2021/03/28 08:29:06;;;;;;;;;;;24.00;32.10;;;;;;1595183;72;1940;-63
2021/03/28 08:31:21;;;;;;;;;;;24.10;32.60;;;;;;1603704;72;680;-64
2021/03/28 08:33:40;;;;;;;;;;;24.10;32.30;;;;;;1594206;72;730;-62
2021/03/28 08:35:44;;;;;;;;;;;24.10;32.10;;;;;;1589193;72;1176;-64
2021/03/28 08:37:47;;;;;;;;;;;24.00;31.90;;;;;;1596398;72;732;-64
2021/03/28 08:40:07;;;;;;;;;;;24.00;31.70;;;;;;1598524;72;1109;-65
2021/03/28 08:42:27;;;;;;;;;;;24.10;31.70;;;;;;1598447;72;739;-65
2021/03/28 08:44:46;;;;;;;;;;;24.10;31.70;;;;;;1592322;72;1221;-64
2021/03/28 08:46:49;;;;;;;;;;;24.10;30.70;;;;;;1597329;72;775;-65
2021/03/28 08:49:10;;;;;;;;;;;24.10;31.00;;;;;;1586089;72;1944;-63
2021/03/28 08:51:19;;;;;;;;;;;24.10;31.10;;;;;;1595944;72;799;-65
2021/03/28 08:53:29;;;;;;;;;;;24.10;30.40;;;;;;1606141;72;751;-64
2021/03/28 08:55:49;;;;;;;;;;;24.10;31.00;;;;;;1607346;72;1199;-63
2021/03/28 08:58:06;;;;;;;;;;;24.10;30.40;;;;;;1599132;72;747;-64
2021/03/28 09:00:27;;;;;;;;;;;24.10;30.70;;;;;;1600990;72;740;-64
2021/03/28 09:02:43;;;;;;;;;;;24.10;30.20;;;;;;1539998;75;1036;-65
2021/03/28 09:04:47;;;;;;;;;;;24.00;30.90;;;;;;1535943;75;1251;-64
2021/03/28 09:06:50;;;;;;;;;;;24.00;30.60;;;;;;1537159;75;703;-64
2021/03/28 09:08:56;;;;;;;;;;;24.00;30.50;;;;;;1602093;73;1928;-66
2021/03/28 09:11:16;;;;;;;;;;;24.00;29.80;;;;;;1607111;72;753;-64
2021/03/28 09:13:20;;;;;;;;;;;24.00;29.90;;;;;;1598886;72;747;-65
2021/03/28 09:15:35;;;;;;;;;;;24.00;30.00;;;;;;1602050;73;1559;-64
2021/03/28 09:17:54;;;;;;;;;;;24.00;30.70;;;;;;1606738;72;1118;-64
2021/03/28 09:19:57;;;;;;;;;;;24.00;30.30;;;;;;1585911;72;715;-64
2021/03/28 09:22:10;;;;;;;;;;;24.00;30.10;;;;;;1603109;73;747;-64
2021/03/28 09:24:16;;;;;;;;;;;24.00;29.70;;;;;;1593728;72;1091;-64
2021/03/28 09:26:38;;;;;;;;;;;24.00;28.90;;;;;;1600929;72;741;-65
2021/03/28 09:28:50;;;;;;;;;;;23.90;29.10;;;;;;1600565;72;1598;-64
2021/03/28 09:31:10;;;;;;;;;;;23.90;29.50;;;;;;1598257;72;1784;-64
2021/03/28 09:33:13;;;;;;;;;;;23.90;30.20;;;;;;1595314;72;790;-62
2021/03/28 09:35:20;;;;;;;;;;;23.80;29.70;;;;;;1598900;72;1080;-61
2021/03/28 09:37:23;;;;;;;;;;;23.90;29.80;;;;;;1589622;72;918;-63
2021/03/28 09:39:39;;;;;;;;;;;23.90;28.40;;;;;;1597381;72;777;-63
2021/03/28 09:41:42;;;;;;;;;;;23.80;27.90;;;;;;1606266;72;737;-63
2021/03/28 09:43:46;;;;;;;;;;;23.80;28.70;;;;;;1594298;72;1063;-64
2021/03/28 09:45:58;;;;;;;;;;;23.80;30.10;;;;;;1584083;70;218247;-63
2021/03/28 09:48:19;;;;;;;;;;;23.80;29.00;;;;;;1576884;73;737;-63
2021/03/28 09:50:23;;;;;;;;;;;23.80;29.00;;;;;;1589271;73;1952;-63
2021/03/28 09:52:43;;;;;;;;;;;23.80;29.20;;;;;;1585998;73;730;-62
2021/03/28 09:55:02;;;;;;;;;;;23.80;28.60;;;;;;1578384;73;1243;-63
2021/03/28 09:57:18;;;;;;;;;;;23.80;28.20;;;;;;1577369;74;778;-64
2021/03/28 09:59:27;;;;;;;;;;;23.80;29.10;;;;;;1587883;74;1743;-62
2021/03/28 10:01:48;;;;;;;;;;;23.80;28.80;;;;;;1576165;75;706;-66
2021/03/28 10:03:52;;;;;;;;;;;23.80;29.40;;;;;;1584226;73;734;-63
2021/03/28 10:05:55;;;;;;;;;;;23.90;29.20;;;;;;1579764;74;1191;-63
2021/03/28 10:08:05;;;;;;;;;;;23.80;28.30;;;;;;1583581;74;1475;-64
2021/03/28 10:10:23;;;;;;;;;;;23.80;28.60;;;;;;1583485;74;1946;-64
2021/03/28 10:12:27;;;;;;;;;;;23.80;28.60;;;;;;1587432;74;1124;-63
2021/03/28 10:14:46;;;;;;;;;;;23.90;28.60;;;;;;1584048;74;1167;-64
2021/03/28 10:16:50;;;;;;;;;;;23.80;27.80;;;;;;1589363;74;770;-63
2021/03/28 10:18:54;;;;;;;;;;;23.70;27.80;;;;;;1582603;74;725;-64
2021/03/28 10:21:03;;;;;;;;;;;23.70;27.40;;;;;;1582635;74;804;-64
2021/03/28 10:23:22;;;;;;;;;;;23.60;27.30;;;;;;1581148;74;797;-62
2021/03/28 10:25:32;;;;;;;;;;;23.70;27.30;;;;;;1578015;73;1176;-64
2021/03/28 10:27:35;;;;;;;;;;;23.70;27.40;;;;;;1583598;74;818;-63
2021/03/28 10:29:42;;;;;;;;;;;23.60;28.10;;;;;;1587937;74;1923;-63
2021/03/28 10:31:59;;;;;;;;;;;23.60;27.40;;;;;;1584858;74;1509;-63
2021/03/28 10:34:18;;;;;;;;;;;23.70;27.20;;;;;;1586541;74;1195;-64
2021/03/28 10:36:38;;;;;;;;;;;23.60;27.40;;;;;;1589516;74;751;-63
2021/03/28 10:38:42;;;;;;;;;;;23.70;27.50;;;;;;1582693;74;732;-64
2021/03/28 10:40:45;;;;;;;;;;;23.70;27.40;;;;;;1584365;75;748;-64
2021/03/28 10:43:05;;;;;;;;;;;23.60;27.30;;;;;;1582736;73;771;-63
2021/03/28 10:45:17;;;;;;;;;;;23.50;27.70;;;;;;1578252;74;1210;-63
2021/03/28 10:47:29;;;;;;;;;;;23.50;27.60;;;;;;1580078;74;672;-63
2021/03/28 10:49:33;;;;;;;;;;;23.50;27.80;;;;;;1575760;74;1946;-62
2021/03/28 10:51:48;;;;;;;;;;;23.40;28.30;;;;;;1576603;74;1534;-63
2021/03/28 10:54:10;;;;;;;;;;;23.40;29.10;;;;;;1583067;74;773;-63
2021/03/28 10:56:14;;;;;;;;;;;23.40;29.50;;;;;;1577049;74;1623;-63
2021/03/28 10:58:33;;;;;;;;;;;23.30;26.80;;;;;;1584953;74;748;-61
2021/03/28 11:00:37;;;;;;;;;;;22.60;24.70;;;;;;1583210;74;745;-64
2021/03/28 11:02:40;;;;;;;;;;;22.20;25.20;;;;;;1578487;74;768;-62
2021/03/28 11:05:01;;;;;;;;;;;22.20;26.60;;;;;;1583030;74;1580;-64
2021/03/28 11:07:13;;;;;;;;;;;21.80;25.90;;;;;;1588180;74;772;-62
2021/03/28 11:09:17;;;;;;;;;;;21.50;25.00;;;;;;1585855;74;1932;-62
2021/03/28 11:11:20;;;;;;;;;;;21.30;25.70;;;;;;1580303;74;758;-63
2021/03/28 11:13:42;;;;;;;;;;;21.30;26.70;;;;;;1576952;74;1549;-64
2021/03/28 11:15:48;;;;;;;;;;;21.50;27.10;;;;;;1583688;74;1172;-63
2021/03/28 11:17:52;;;;;;;;;;;21.80;27.80;;;;;;1578821;74;769;-64
2021/03/28 11:19:58;;;;;;;;;;;22.10;27.90;;;;;;1580525;74;765;-63
2021/03/28 11:22:08;;;;;;;;;;;22.20;27.60;;;;;;1577479;74;1187;-63
2021/03/28 11:24:16;;;;;;;;;;;22.00;23.70;;;;;;1580668;74;701;-64
2021/03/28 11:26:19;;;;;;;;;;;21.70;26.10;;;;;;1582572;74;1590;-63
2021/03/28 11:28:25;;;;;;;;;;;21.80;27.20;;;;;;1577361;74;753;-63
2021/03/28 11:30:40;;;;;;;;;;;21.90;27.50;;;;;;1578985;74;1941;-64
2021/03/28 11:32:59;;;;;;;;;;;22.10;27.60;;;;;;1586224;74;846;-63
2021/03/28 11:35:05;;;;;;;;;;;22.10;25.60;;;;;;1579953;74;1152;-63
2021/03/28 11:37:25;;;;;;;;;;;21.90;25.50;;;;;;1581325;74;704;-63
2021/03/28 11:39:28;;;;;;;;;;;21.80;25.30;;;;;;1585220;74;765;-64
2021/03/28 11:41:34;;;;;;;;;;;21.90;26.30;;;;;;1580564;74;741;-63
2021/03/28 11:43:39;;;;;;;;;;;22.00;26.70;;;;;;1571350;74;882;-63
2021/03/28 11:45:48;;;;;;;;;;;22.10;27.00;;;;;;1581166;74;1235;-63
2021/03/28 11:47:50;;;;;;;;;;;22.20;26.00;;;;;;1585689;74;683;-63
2021/03/28 11:49:54;;;;;;;;;;;22.10;26.50;;;;;;1590438;74;1944;-63
2021/03/28 11:51:57;;;;;;;;;;;22.20;26.00;;;;;;1588377;74;744;-63
2021/03/28 11:54:13;;;;;;;;;;;22.30;25.70;;;;;;1592745;74;751;-63
2021/03/28 11:56:33;;;;;;;;;;;22.20;26.10;;;;;;1586976;74;1307;-65
2021/03/28 11:58:39;;;;;;;;;;;22.20;24.40;;;;;;1582611;74;807;-63
2021/03/28 12:00:43;;;;;;;;;;;22.00;24.60;;;;;;1584539;74;750;-64
2021/03/28 12:02:44;;;;;;;;;;;21.90;24.40;;;;;;1579492;74;847;-63
2021/03/28 12:04:47;;;;;;;;;;;21.60;24.10;;;;;;1557081;75;1194;-63
2021/03/28 12:06:51;;;;;;;;;;;21.70;25.10;;;;;;1579590;74;784;-63
2021/03/28 12:08:56;;;;;;;;;;;21.80;25.20;;;;;;1581461;74;751;-62
2021/03/28 12:10:58;;;;;;;;;;;21.90;25.50;;;;;;1583682;74;1930;-64
2021/03/28 12:13:05;;;;;;;;;;;21.90;25.60;;;;;;1590270;74;808;-63
2021/03/28 12:15:24;;;;;;;;;;;22.00;25.30;;;;;;1588798;74;1540;-63
2021/03/28 12:17:27;;;;;;;;;;;22.00;25.60;;;;;;1588812;74;715;-63
2021/03/28 12:19:29;;;;;;;;;;;22.20;25.70;;;;;;1588545;74;627;-64
2021/03/28 12:21:32;;;;;;;;;;;22.20;25.20;;;;;;1591060;74;802;-64
2021/03/28 12:23:38;;;;;;;;;;;22.30;24.80;;;;;;1579619;74;792;-63
2021/03/28 12:25:40;;;;;;;;;;;22.20;25.20;;;;;;1558770;74;1370;-62
2021/03/28 12:27:43;;;;;;;;;;;22.20;25.90;;;;;;1575864;75;777;-62
2021/03/28 12:29:46;;;;;;;;;;;22.30;26.50;;;;;;1576963;74;1942;-62
2021/03/28 12:31:50;;;;;;;;;;;22.40;26.50;;;;;;1591843;74;790;-60
2021/03/28 12:33:56;;;;;;;;;;;22.50;27.10;;;;;;1585673;74;746;-62
2021/03/28 12:36:00;;;;;;;;;;;22.50;27.00;;;;;;1593462;74;1139;-61
2021/03/28 12:38:19;;;;;;;;;;;22.60;27.50;;;;;;1589211;74;723;-62
2021/03/28 12:40:26;;;;;;;;;;;22.60;27.60;;;;;;1586653;75;792;-63
2021/03/28 12:42:29;;;;;;;;;;;22.60;27.60;;;;;;1586447;74;756;-63
2021/03/28 12:44:33;;;;;;;;;;;22.60;27.80;;;;;;1584195;75;1207;-64
2021/03/28 12:46:54;;;;;;;;;;;22.60;27.70;;;;;;1589058;75;1652;-64
2021/03/28 12:49:09;;;;;;;;;;;22.60;27.30;;;;;;1575751;74;1187;-62
2021/03/28 12:51:19;;;;;;;;;;;22.50;27.30;;;;;;1582960;74;1937;-62
2021/03/28 12:53:21;;;;;;;;;;;22.50;26.20;;;;;;1597250;74;1164;-61